createdAt,value
2024-01-06T00:01:17.920Z,99265.34
2024-01-06T00:03:45.449Z,99291.13
2024-01-06T00:06:16.066Z,99342.69
2024-01-06T00:08:43.208Z,99279.13
2024-01-06T00:11:11.408Z,99284.19
2024-01-06T00:13:38.497Z,99224.00
2024-01-06T00:16:05.834Z,99275.56
2024-01-06T00:18:33.105Z,99304.78
2024-01-06T00:21:00.343Z,99278.09
2024-01-06T00:23:30.280Z,99357.28
2024-01-06T00:25:57.920Z,99275.50
2024-01-06T00:28:25.430Z,99355.75
2024-01-06T00:30:52.653Z,99323.91
2024-01-06T00:33:19.974Z,99365.97
2024-01-06T00:35:47.066Z,99265.50
2024-01-06T00:38:14.141Z,99284.25
2024-01-06T00:40:41.180Z,99313.56
2024-01-06T00:43:08.321Z,99322.28
2024-01-06T00:45:35.460Z,99297.44
2024-01-06T00:48:02.613Z,99295.66
2024-01-06T00:50:30.084Z,99384.91
2024-01-06T00:52:57.177Z,99299.09
2024-01-06T00:55:25.428Z,99371.56
2024-01-06T00:57:52.514Z,99368.06
2024-01-06T01:00:19.908Z,99258.16
2024-01-06T01:02:47.033Z,99330.47
2024-01-06T01:05:14.214Z,99301.25
2024-01-06T01:07:41.347Z,99307.31
2024-01-06T01:10:09.979Z,99312.41
2024-01-06T01:12:37.453Z,99324.56
2024-01-06T01:15:04.824Z,99296.09
2024-01-06T01:17:32.037Z,99342.03
2024-01-06T01:19:59.142Z,99332.63
2024-01-06T01:22:26.288Z,99362.66
2024-01-06T01:24:53.463Z,99281.63
2024-01-06T01:27:20.573Z,99302.25
2024-01-06T01:29:49.375Z,99349.69
2024-01-06T01:32:16.587Z,99340.09
2024-01-06T01:34:43.835Z,99406.50
2024-01-06T01:37:11.115Z,99449.91
2024-01-06T01:39:38.879Z,99331.00
2024-01-06T01:42:06.288Z,99350.75
2024-01-06T01:44:33.510Z,99396.47
2024-01-06T01:47:00.635Z,99357.56
2024-01-06T01:49:28.152Z,99397.09
2024-01-06T01:51:55.802Z,99364.69
2024-01-06T01:54:23.147Z,99376.81
2024-01-06T01:56:50.677Z,99395.66
2024-01-06T01:59:20.616Z,99424.00
2024-01-06T02:01:48.490Z,99395.78
2024-01-06T02:04:15.598Z,99382.75
2024-01-06T02:06:42.700Z,99352.03
2024-01-06T02:09:09.895Z,99340.72
2024-01-06T02:11:37.037Z,99381.91
2024-01-06T02:14:04.113Z,99375.94
2024-01-06T02:16:31.199Z,99443.22
2024-01-06T02:18:59.485Z,99367.56
2024-01-06T02:21:30.039Z,99343.53
2024-01-06T02:23:57.579Z,99376.38
2024-01-06T02:26:24.690Z,99428.78
2024-01-06T02:28:51.872Z,99497.63
2024-01-06T02:31:21.228Z,99459.72
2024-01-06T02:33:48.449Z,99428.13
2024-01-06T02:36:15.623Z,99423.09
2024-01-06T02:38:42.725Z,99381.00
2024-01-06T02:41:09.828Z,99422.28
2024-01-06T02:43:37.000Z,99508.38
2024-01-06T02:46:04.213Z,99393.84
2024-01-06T02:48:31.993Z,99417.88
2024-01-06T02:50:59.100Z,99417.88
2024-01-06T02:53:26.197Z,99441.03
2024-01-06T02:55:53.245Z,99426.53
2024-01-06T02:58:20.278Z,99393.84
2024-01-06T03:00:47.489Z,99550.81
2024-01-06T03:03:14.774Z,99505.22
2024-01-06T03:05:42.019Z,99418.25
2024-01-06T03:08:09.345Z,99405.53
2024-01-06T03:10:37.488Z,99493.09
2024-01-06T03:13:04.933Z,99442.31
2024-01-06T03:15:32.146Z,99535.41
2024-01-06T03:17:59.280Z,99502.50
2024-01-06T03:20:26.483Z,99414.69
2024-01-06T03:22:53.577Z,99466.25
2024-01-06T03:25:20.620Z,99436.38
2024-01-06T03:27:47.797Z,99489.72
2024-01-06T03:30:15.051Z,99459.59
2024-01-06T03:32:42.241Z,99554.44
2024-01-06T03:35:09.469Z,99476.78
2024-01-06T03:37:36.579Z,99552.72
2024-01-06T03:40:04.483Z,99445.13
2024-01-06T03:42:32.097Z,99492.38
2024-01-06T03:44:59.244Z,99420.03
2024-01-06T03:47:26.401Z,99476.91
2024-01-06T03:49:53.534Z,99388.22
2024-01-06T03:52:21.001Z,99470.63
2024-01-06T03:54:48.303Z,99400.06
2024-01-06T03:57:15.576Z,99460.53
2024-01-06T03:59:43.619Z,99474.47
2024-01-06T04:02:10.709Z,99451.22
2024-01-06T04:04:37.839Z,99428.72
2024-01-06T04:07:05.091Z,99422.72
2024-01-06T04:09:32.196Z,99395.06
2024-01-06T04:11:59.295Z,99471.84
2024-01-06T04:14:26.426Z,99408.78
2024-01-06T04:16:54.110Z,99452.88
2024-01-06T04:19:21.925Z,99420.06
2024-01-06T04:21:49.461Z,99444.91
2024-01-06T04:24:16.595Z,99475.78
2024-01-06T04:26:46.111Z,99492.19
2024-01-06T04:29:13.755Z,99394.91
2024-01-06T04:31:42.694Z,99353.63
2024-01-06T04:34:10.063Z,99416.28
2024-01-06T04:36:37.263Z,99460.31
2024-01-06T04:39:04.483Z,99466.31
2024-01-06T04:41:32.191Z,99395.56
2024-01-06T04:43:59.320Z,99406.81
2024-01-06T04:46:26.480Z,99401.44
2024-01-06T04:48:53.732Z,99439.41
2024-01-06T04:51:20.893Z,99357.66
2024-01-06T04:53:48.167Z,99464.41
2024-01-06T04:56:15.258Z,99403.44
2024-01-06T04:58:42.318Z,99462.75
2024-01-06T05:01:09.631Z,99390.38
2024-01-06T05:03:37.033Z,99430.09
2024-01-06T05:06:04.482Z,99497.22
2024-01-06T05:08:32.252Z,99498.94
2024-01-06T05:11:00.206Z,99449.16
2024-01-06T05:13:27.349Z,99464.56
2024-01-06T05:15:54.547Z,99488.75
2024-01-06T05:18:21.869Z,99448.22
2024-01-06T05:20:49.165Z,99428.50
2024-01-06T05:23:16.303Z,99416.41
2024-01-06T05:25:43.341Z,99442.53
2024-01-06T05:28:10.342Z,99376.06
2024-01-06T05:30:37.480Z,99432.94
2024-01-06T05:33:05.845Z,99496.69
2024-01-06T05:35:32.991Z,99446.84
2024-01-06T05:38:00.156Z,99422.56
2024-01-06T05:40:27.266Z,99383.16
2024-01-06T05:42:56.711Z,99549.31
2024-01-06T05:45:24.740Z,99437.38
2024-01-06T05:47:52.779Z,99502.84
2024-01-06T05:50:19.960Z,99433.97
2024-01-06T05:52:48.519Z,99451.19
2024-01-06T05:55:17.028Z,99502.84
2024-01-06T05:57:44.200Z,99454.72
2024-01-06T06:00:12.370Z,99535.63
2024-01-06T06:02:42.476Z,99478.88
2024-01-06T06:05:09.879Z,99471.13
2024-01-06T06:07:40.977Z,99521.88
2024-01-06T06:10:10.836Z,99459.00
2024-01-06T06:12:39.376Z,99460.81
2024-01-06T06:15:07.609Z,99524.59
2024-01-06T06:17:35.499Z,99514.44
2024-01-06T06:20:02.583Z,99495.56
2024-01-06T06:22:32.876Z,99500.63
2024-01-06T06:25:00.892Z,99527.50
2024-01-06T06:27:28.434Z,99484.34
2024-01-06T06:29:57.566Z,99542.22
2024-01-06T06:32:25.786Z,99539.84
2024-01-06T06:34:53.035Z,99532.91
2024-01-06T06:37:20.109Z,99513.84
2024-01-06T06:39:47.991Z,99536.31
2024-01-06T06:42:15.089Z,99494.78
2024-01-06T06:44:42.120Z,99488.78
2024-01-06T06:47:09.134Z,99537.16
2024-01-06T06:49:36.281Z,99531.91
2024-01-06T06:52:04.902Z,99520.88
2024-01-06T06:54:32.204Z,99565.66
2024-01-06T06:56:59.316Z,99557.06
2024-01-06T06:59:28.968Z,99531.19
2024-01-06T07:01:56.064Z,99509.72
2024-01-06T07:04:24.673Z,99496.78
2024-01-06T07:06:52.288Z,99539.84
2024-01-06T07:09:22.689Z,99590.78
2024-01-06T07:11:51.210Z,99590.69
2024-01-06T07:14:18.602Z,99525.13
2024-01-06T07:16:45.767Z,99555.28
2024-01-06T07:19:13.028Z,99548.56
2024-01-06T07:21:40.285Z,99560.59
2024-01-06T07:24:07.388Z,99565.81
2024-01-06T07:26:37.664Z,99521.06
2024-01-06T07:29:04.799Z,99544.38
2024-01-06T07:31:32.124Z,99618.47
2024-01-06T07:33:59.500Z,99669.31
2024-01-06T07:36:26.696Z,99594.38
2024-01-06T07:38:53.793Z,99594.38
2024-01-06T07:41:26.554Z,99546.97
2024-01-06T07:43:53.578Z,99575.50
2024-01-06T07:46:23.211Z,99540.03
2024-01-06T07:48:53.230Z,99626.34
2024-01-06T07:51:20.494Z,99586.69
2024-01-06T07:53:47.538Z,99566.75
2024-01-06T07:56:14.618Z,99568.47
2024-01-06T07:58:41.712Z,99584.94
2024-01-06T08:01:08.967Z,99633.19
2024-01-06T08:03:36.206Z,99583.94
2024-01-06T08:06:04.490Z,99534.94
2024-01-06T08:08:31.660Z,99593.53
2024-01-06T08:10:58.689Z,99585.03
2024-01-06T08:13:25.828Z,99666.13
2024-01-06T08:15:53.042Z,99559.06
2024-01-06T08:18:21.914Z,99577.25
2024-01-06T08:20:49.121Z,99622.88
2024-01-06T08:23:17.433Z,99635.84
2024-01-06T08:25:45.281Z,99620.34
2024-01-06T08:28:12.479Z,99634.13
2024-01-06T08:30:39.698Z,99681.50
2024-01-06T08:33:07.068Z,99629.78
2024-01-06T08:35:34.225Z,99700.41
2024-01-06T08:38:01.233Z,99565.19
2024-01-06T08:40:28.335Z,99696.22
2024-01-06T08:42:55.347Z,99735.06
2024-01-06T08:45:23.729Z,99687.75
2024-01-06T08:47:50.906Z,99629.84
2024-01-06T08:50:18.058Z,99667.00
2024-01-06T08:52:45.182Z,99645.34
2024-01-06T08:55:12.439Z,99596.28
2024-01-06T08:57:39.528Z,99657.53
2024-01-06T09:00:10.404Z,99584.97
2024-01-06T09:02:37.467Z,99651.50
2024-01-06T09:05:05.425Z,99737.66
2024-01-06T09:07:32.641Z,99628.88
2024-01-06T09:10:00.714Z,99651.25
2024-01-06T09:12:27.973Z,99676.44
2024-01-06T09:14:55.092Z,99714.34
2024-01-06T09:17:23.762Z,99675.59
2024-01-06T09:19:50.981Z,99719.66
2024-01-06T09:22:18.082Z,99634.19
2024-01-06T09:24:45.185Z,99696.31
2024-01-06T09:27:14.088Z,99723.78
2024-01-06T09:29:41.379Z,99779.06
2024-01-06T09:32:08.419Z,99663.31
2024-01-06T09:34:38.953Z,99754.00
2024-01-06T09:37:07.066Z,99673.69
2024-01-06T09:39:34.184Z,99708.31
2024-01-06T09:42:01.456Z,99653.03
2024-01-06T09:44:28.750Z,99627.28
2024-01-06T09:47:00.411Z,99622.91
2024-01-06T09:49:31.860Z,99688.66
2024-01-06T09:52:02.007Z,99725.59
2024-01-06T09:54:34.933Z,99694.59
2024-01-06T09:57:07.193Z,99633.38
2024-01-06T09:59:37.524Z,99685.09
2024-01-06T10:02:05.337Z,99717.09
2024-01-06T10:04:32.603Z,99701.59
2024-01-06T10:06:59.874Z,99713.66
2024-01-06T10:09:30.087Z,99667.88
2024-01-06T10:11:58.290Z,99729.97
2024-01-06T10:14:25.933Z,99729.94
2024-01-06T10:16:55.838Z,99652.22
2024-01-06T10:19:24.556Z,99755.00
2024-01-06T10:21:51.850Z,99638.50
2024-01-06T10:24:19.758Z,99637.63
2024-01-06T10:26:47.582Z,99639.28
2024-01-06T10:29:15.239Z,99662.56
2024-01-06T10:31:42.971Z,99708.38
2024-01-06T10:34:10.545Z,99780.78
2024-01-06T10:36:37.952Z,99725.56
2024-01-06T10:39:07.157Z,99808.34
2024-01-06T10:41:35.441Z,99679.53
2024-01-06T10:44:03.903Z,99691.69
2024-01-06T10:46:32.862Z,99689.09
2024-01-06T10:49:02.171Z,99618.47
2024-01-06T10:51:30.630Z,99681.34
2024-01-06T10:54:01.678Z,99714.97
2024-01-06T10:56:30.622Z,99689.09
2024-01-06T10:58:58.498Z,99677.75
2024-01-06T11:01:29.107Z,99709.81
2024-01-06T11:03:58.348Z,99700.19
2024-01-06T11:06:26.859Z,99711.41
2024-01-06T11:09:19.900Z,99635.44
2024-01-06T11:11:47.170Z,99672.47
2024-01-06T11:14:34.201Z,99673.16
2024-01-06T11:17:01.593Z,99681.66
2024-01-06T11:19:43.777Z,99780.97
2024-01-06T11:22:32.484Z,99742.28
2024-01-06T11:25:15.271Z,99774.16
2024-01-06T11:27:46.212Z,99773.22
2024-01-06T11:30:27.667Z,99767.03
2024-01-06T11:33:02.515Z,99762.00
2024-01-06T11:35:31.112Z,99681.75
2024-01-06T11:38:02.163Z,99754.06
2024-01-06T11:40:36.284Z,99758.31
2024-01-06T11:43:13.268Z,99748.72
2024-01-06T11:45:43.960Z,99738.47
2024-01-06T11:48:16.001Z,99731.47
2024-01-06T11:50:43.486Z,99752.22
2024-01-06T11:53:13.744Z,99769.34
2024-01-06T11:55:41.051Z,99751.28
2024-01-06T11:58:08.420Z,99736.56
2024-01-06T12:00:41.785Z,99738.16
2024-01-06T12:03:09.815Z,99732.16
2024-01-06T12:05:37.046Z,99710.56
2024-01-06T12:08:09.134Z,99746.00
2024-01-06T12:10:37.155Z,99770.97
2024-01-06T12:13:12.666Z,99757.22
2024-01-06T12:15:41.792Z,99740.69
2024-01-06T12:18:09.585Z,99713.06
2024-01-06T12:20:36.851Z,99701.00
2024-01-06T12:23:07.472Z,99725.22
2024-01-06T12:25:40.164Z,99704.31
2024-01-06T12:28:08.932Z,99741.34
2024-01-06T12:30:36.873Z,99720.75
2024-01-06T12:33:05.128Z,99757.78
2024-01-06T12:35:32.590Z,99731.78
2024-01-06T12:37:59.804Z,99724.25
2024-01-06T12:40:27.537Z,99738.81
2024-01-06T12:42:54.727Z,99753.75
2024-01-06T12:45:22.022Z,99637.97
2024-01-06T12:47:49.321Z,99636.25
2024-01-06T12:50:16.718Z,99684.72
2024-01-06T12:52:45.212Z,99731.91
2024-01-06T12:55:12.480Z,99667.25
2024-01-06T12:57:39.637Z,99683.50
2024-01-06T13:00:09.742Z,99716.50
2024-01-06T13:02:36.827Z,99712.91
2024-01-06T13:05:05.967Z,99752.50
2024-01-06T13:07:33.322Z,99656.94
2024-01-06T13:10:01.231Z,99686.94
2024-01-06T13:12:31.086Z,99742.28
2024-01-06T13:14:58.687Z,99687.97
2024-01-06T13:17:26.322Z,99728.47
2024-01-06T13:19:58.593Z,99628.41
2024-01-06T13:22:27.277Z,99657.69
2024-01-06T13:24:54.735Z,99680.94
2024-01-06T13:27:34.845Z,99677.50
2024-01-06T13:30:01.992Z,99698.19
2024-01-06T13:32:32.316Z,99716.34
2024-01-06T13:35:05.515Z,99716.41
2024-01-06T13:37:36.003Z,99709.47
2024-01-06T13:40:04.316Z,99704.28
2024-01-06T13:42:31.575Z,99649.91
2024-01-06T13:45:01.586Z,99767.28
2024-01-06T13:47:28.809Z,99658.53
2024-01-06T13:49:57.975Z,99721.59
2024-01-06T13:52:25.559Z,99780.38
2024-01-06T13:54:53.501Z,99705.97
2024-01-06T13:57:21.558Z,99669.78
2024-01-06T13:59:49.242Z,99672.47
2024-01-06T14:02:16.461Z,99786.41
2024-01-06T14:04:43.831Z,99750.03
2024-01-06T14:07:11.651Z,99747.59
2024-01-06T14:09:41.970Z,99680.25
2024-01-06T14:12:09.136Z,99699.16
2024-01-06T14:14:36.230Z,99650.00
2024-01-06T14:17:03.919Z,99700.25
2024-01-06T14:19:31.430Z,99801.34
2024-01-06T14:21:58.845Z,99718.47
2024-01-06T14:24:26.157Z,99774.47
2024-01-06T14:26:57.084Z,99729.56
2024-01-06T14:29:27.604Z,99721.84
2024-01-06T14:31:54.963Z,99703.69
2024-01-06T14:34:22.420Z,99730.66
2024-01-06T14:36:49.911Z,99672.69
2024-01-06T14:39:20.209Z,99767.69
2024-01-06T14:41:50.167Z,99765.81
2024-01-06T14:44:20.883Z,99728.88
2024-01-06T14:46:49.349Z,99766.78
2024-01-06T14:49:16.554Z,99678.84
2024-01-06T14:51:45.820Z,99753.00
2024-01-06T14:54:13.208Z,99695.22
2024-01-06T14:56:41.140Z,99764.28
2024-01-06T14:59:09.462Z,99677.25
2024-01-06T15:01:39.662Z,99713.44
2024-01-06T15:04:07.162Z,99786.78
2024-01-06T15:06:35.832Z,99788.63
2024-01-06T15:09:03.173Z,99842.06
2024-01-06T15:11:33.397Z,99798.03
2024-01-06T15:14:04.054Z,99758.34
2024-01-06T15:16:31.540Z,99806.75
2024-01-06T15:19:00.607Z,99808.53
2024-01-06T15:21:30.594Z,99792.22
2024-01-06T15:23:57.807Z,99722.41
2024-01-06T15:26:28.110Z,99787.09
2024-01-06T15:28:57.294Z,99850.13
2024-01-06T15:31:24.689Z,99720.69
2024-01-06T15:33:52.312Z,99734.41
2024-01-06T15:36:19.728Z,99742.81
2024-01-06T15:38:46.994Z,99835.31
2024-01-06T15:41:14.255Z,99774.09
2024-01-06T15:43:41.555Z,99851.66
2024-01-06T15:46:09.032Z,99734.25
2024-01-06T15:48:37.492Z,99768.75
2024-01-06T15:51:05.620Z,99776.66
2024-01-06T15:53:34.615Z,99830.81
2024-01-06T15:56:02.149Z,99811.16
2024-01-06T15:58:29.610Z,99719.56
2024-01-06T16:00:56.982Z,99769.56
2024-01-06T16:03:24.231Z,99791.88
2024-01-06T16:05:51.593Z,99818.84
2024-01-06T16:08:18.790Z,99852.34
2024-01-06T16:10:46.543Z,99858.38
2024-01-06T16:13:14.432Z,99811.03
2024-01-06T16:15:41.640Z,99784.31
2024-01-06T16:18:08.945Z,99802.41
2024-01-06T16:20:36.160Z,99745.44
2024-01-06T16:23:04.990Z,99871.41
2024-01-06T16:25:32.922Z,99774.88
2024-01-06T16:28:00.210Z,99886.22
2024-01-06T16:30:29.114Z,99836.25
2024-01-06T16:32:56.501Z,99875.06
2024-01-06T16:35:23.926Z,99793.34
2024-01-06T16:37:52.440Z,99758.75
2024-01-06T16:40:19.949Z,99849.22
2024-01-06T16:42:47.298Z,99760.47
2024-01-06T16:45:14.662Z,99839.84
2024-01-06T16:47:42.581Z,99805.19
2024-01-06T16:50:10.281Z,99882.06
2024-01-06T16:52:39.084Z,99875.06
2024-01-06T16:55:08.847Z,99831.09
2024-01-06T16:57:36.142Z,99894.03
2024-01-06T17:00:06.138Z,99763.06
2024-01-06T17:02:33.360Z,99803.53
2024-01-06T17:05:01.555Z,99810.66
2024-01-06T17:07:28.829Z,99738.78
2024-01-06T17:10:00.328Z,99831.09
2024-01-06T17:12:27.702Z,99830.38
2024-01-06T17:14:54.922Z,99795.84
2024-01-06T17:17:22.159Z,99801.03
2024-01-06T17:19:49.368Z,99892.63
2024-01-06T17:22:16.465Z,99811.44
2024-01-06T17:24:43.679Z,99843.63
2024-01-06T17:27:10.830Z,99846.19
2024-01-06T17:29:37.977Z,99790.91
2024-01-06T17:32:05.963Z,99890.38
2024-01-06T17:34:33.115Z,99904.88
2024-01-06T17:37:00.965Z,99865.25
2024-01-06T17:39:28.432Z,99902.38
2024-01-06T17:42:00.018Z,99915.16
2024-01-06T17:44:32.579Z,99809.91
2024-01-06T17:46:59.658Z,99861.81
2024-01-06T17:49:26.917Z,99785.75
2024-01-06T17:51:54.132Z,99803.97
2024-01-06T17:54:21.914Z,99808.31
2024-01-06T17:56:49.045Z,99790.44
2024-01-06T17:59:19.225Z,99855.97
2024-01-06T18:01:46.346Z,99870.81
2024-01-06T18:04:16.710Z,99899.19
2024-01-06T18:06:44.911Z,99844.84
2024-01-06T18:09:13.546Z,99920.81
2024-01-06T18:11:42.495Z,99873.38
2024-01-06T18:14:09.597Z,99924.25
2024-01-06T18:16:42.449Z,99931.16
2024-01-06T18:19:09.943Z,99939.81
2024-01-06T18:21:37.621Z,99926.84
2024-01-06T18:24:05.185Z,99923.41
2024-01-06T18:26:35.108Z,99873.25
2024-01-06T18:29:02.545Z,99946.72
2024-01-06T18:31:30.049Z,99971.97
2024-01-06T18:33:57.288Z,99942.44
2024-01-06T18:36:25.079Z,99953.66
2024-01-06T18:38:54.390Z,99899.16
2024-01-06T18:41:21.561Z,99919.06
2024-01-06T18:43:48.778Z,99849.25
2024-01-06T18:46:18.780Z,99871.81
2024-01-06T18:48:46.078Z,99874.31
2024-01-06T18:51:14.086Z,99907.97
2024-01-06T18:53:41.655Z,99949.53
2024-01-06T18:56:09.640Z,99864.88
2024-01-06T18:58:36.743Z,99900.16
2024-01-06T19:01:04.042Z,99860.47
2024-01-06T19:03:31.282Z,99946.00
2024-01-06T19:05:58.472Z,99890.81
2024-01-06T19:08:25.729Z,99853.50
2024-01-06T19:10:53.027Z,99870.75
2024-01-06T19:13:20.199Z,99910.47
2024-01-06T19:15:50.194Z,99898.50
2024-01-06T19:18:17.648Z,99919.97
2024-01-06T19:20:46.877Z,99946.75
2024-01-06T19:23:16.805Z,99870.91
2024-01-06T19:25:43.847Z,99906.28
2024-01-06T19:28:11.144Z,99963.19
2024-01-06T19:30:38.485Z,99975.41
2024-01-06T19:33:06.741Z,99926.13
2024-01-06T19:35:34.291Z,99935.81
2024-01-06T19:38:01.489Z,99991.88
2024-01-06T19:40:28.720Z,99912.66
2024-01-06T19:43:00.797Z,99954.09
2024-01-06T19:45:30.351Z,99930.06
2024-01-06T19:48:00.495Z,99891.09
2024-01-06T19:50:30.836Z,99963.72
2024-01-06T19:52:58.333Z,99866.06
2024-01-06T19:55:25.501Z,99968.91
2024-01-06T19:57:52.652Z,99990.59
2024-01-06T20:00:21.458Z,99914.53
2024-01-06T20:02:49.138Z,99985.34
2024-01-06T20:05:16.497Z,99956.81
2024-01-06T20:07:43.713Z,99993.16
2024-01-06T20:10:12.511Z,100004.38
2024-01-06T20:12:40.217Z,99886.91
2024-01-06T20:15:11.594Z,99951.69
2024-01-06T20:17:39.303Z,99987.16
2024-01-06T20:20:11.576Z,99972.50
2024-01-06T20:22:39.023Z,99903.38
2024-01-06T20:25:06.749Z,99977.81
2024-01-06T20:27:35.894Z,99898.22
2024-01-06T20:30:03.596Z,100007.25
2024-01-06T20:32:31.952Z,99917.34
2024-01-06T20:35:00.899Z,100010.81
2024-01-06T20:37:30.792Z,100007.44
2024-01-06T20:39:58.130Z,99935.56
2024-01-06T20:42:25.567Z,99914.00
2024-01-06T20:44:52.820Z,99974.47
2024-01-06T20:47:20.029Z,99940.84
2024-01-06T20:49:47.230Z,99986.59
2024-01-06T20:52:14.484Z,99901.81
2024-01-06T20:54:44.295Z,99906.22
2024-01-06T20:57:11.583Z,99991.09
2024-01-06T20:59:38.928Z,99993.53
2024-01-06T21:02:09.599Z,99990.09
2024-01-06T21:04:38.193Z,99983.97
2024-01-06T21:07:06.153Z,99965.94
2024-01-06T21:09:36.854Z,99995.31
2024-01-06T21:12:04.608Z,99968.50
2024-01-06T21:14:31.746Z,99989.28
2024-01-06T21:17:01.594Z,99988.41
2024-01-06T21:19:29.702Z,99970.28
2024-01-06T21:22:00.011Z,99989.41
2024-01-06T21:24:27.083Z,99983.28
2024-01-06T21:26:54.666Z,99974.56
2024-01-06T21:29:21.809Z,99992.78
2024-01-06T21:31:51.702Z,100007.53
2024-01-06T21:34:21.529Z,99967.75
2024-01-06T21:36:50.771Z,99985.06
2024-01-06T21:39:17.971Z,100009.34
2024-01-06T21:41:46.692Z,99985.97
2024-01-06T21:44:14.005Z,100001.50
2024-01-06T21:46:44.250Z,99985.94
2024-01-06T21:49:11.322Z,99994.59
2024-01-06T21:51:54.934Z,99992.88
2024-01-06T21:54:22.409Z,99973.94
2024-01-06T21:56:49.696Z,100010.38
2024-01-06T21:59:16.844Z,100005.19
2024-01-06T22:01:44.362Z,100013.78
2024-01-06T22:04:11.743Z,100011.25
2024-01-06T22:06:39.672Z,100000.84
2024-01-06T22:09:11.280Z,100024.22
2024-01-06T22:11:40.489Z,100020.81
2024-01-06T22:14:07.692Z,99940.44
2024-01-06T22:16:34.830Z,99972.34
2024-01-06T22:19:01.966Z,100006.16
2024-01-06T22:21:30.582Z,100014.78
2024-01-06T22:23:59.650Z,100020.88
2024-01-06T22:26:27.223Z,100032.06
2024-01-06T22:28:54.420Z,100019.19
2024-01-06T22:31:21.673Z,100027.00
2024-01-06T22:33:48.957Z,100044.31
2024-01-06T22:36:17.189Z,100011.41
2024-01-06T22:38:53.028Z,100007.06
2024-01-06T22:41:25.365Z,100027.91
2024-01-06T22:43:52.604Z,100041.78
2024-01-06T22:46:24.220Z,100016.63
2024-01-06T22:48:53.424Z,100048.72
2024-01-06T22:51:20.836Z,100037.47
2024-01-06T22:53:48.119Z,100032.25
2024-01-06T22:56:15.164Z,100045.22
2024-01-06T22:58:42.363Z,100030.53
2024-01-06T23:01:09.839Z,100044.38
2024-01-06T23:03:38.848Z,100044.38
2024-01-06T23:06:08.479Z,100014.09
2024-01-06T23:08:36.473Z,100014.94
2024-01-06T23:11:04.877Z,100005.44
2024-01-06T23:13:32.070Z,100013.22
2024-01-06T23:15:59.585Z,100003.72
2024-01-06T23:18:27.047Z,100015.00
2024-01-06T23:20:57.236Z,100038.34
2024-01-06T23:23:24.423Z,100050.53
2024-01-06T23:25:51.437Z,100061.78
2024-01-06T23:28:19.766Z,100029.72
2024-01-06T23:30:48.953Z,100053.16
2024-01-06T23:33:16.010Z,100049.63
2024-01-06T23:35:43.368Z,100005.53
2024-01-06T23:38:10.384Z,100065.25
2024-01-06T23:40:37.640Z,100061.78
2024-01-06T23:43:08.147Z,100066.13
2024-01-06T23:45:38.416Z,100030.66
2024-01-06T23:48:05.968Z,100054.91
2024-01-06T23:50:33.544Z,100058.34
2024-01-06T23:53:03.280Z,100059.25
2024-01-06T23:55:35.692Z,100033.31
2024-01-06T23:58:06.800Z,100069.69
